sensor_id;sensor_type;location;lat;lon;timestamp;temperature;humidity
66708;DHT22;53622;0.000;0.000;2023-03-01T00:02:37;19.10;42.40
66708;DHT22;53622;0.000;0.000;2023-03-01T00:05:08;19.10;42.30
66708;DHT22;53622;0.000;0.000;2023-03-01T00:07:40;19.10;42.30
66708;DHT22;53622;0.000;0.000;2023-03-01T00:11:12;19.10;42.30
66708;DHT22;53622;0.000;0.000;2023-03-01T00:13:44;19.00;42.30
66708;DHT22;53622;0.000;0.000;2023-03-01T00:16:16;19.00;42.30
66708;DHT22;53622;0.000;0.000;2023-03-01T00:18:46;19.00;42.30
66708;DHT22;53622;0.000;0.000;2023-03-01T00:21:15;19.00;42.20
66708;DHT22;53622;0.000;0.000;2023-03-01T00:23:45;19.00;42.30
66708;DHT22;53622;0.000;0.000;2023-03-01T00:26:18;19.00;42.30
66708;DHT22;53622;0.000;0.000;2023-03-01T00:28:49;18.90;42.10
66708;DHT22;53622;0.000;0.000;2023-03-01T00:31:20;18.90;42.10
66708;DHT22;53622;0.000;0.000;2023-03-01T00:33:52;18.90;42.10
66708;DHT22;53622;0.000;0.000;2023-03-01T00:36:26;18.90;42.20
66708;DHT22;53622;0.000;0.000;2023-03-01T00:38:57;18.90;42.10
66708;DHT22;53622;0.000;0.000;2023-03-01T00:41:26;18.90;42.10
66708;DHT22;53622;0.000;0.000;2023-03-01T00:43:57;18.90;42.20
66708;DHT22;53622;0.000;0.000;2023-03-01T00:46:27;18.80;42.10
66708;DHT22;53622;0.000;0.000;2023-03-01T00:48:58;18.80;42.10
66708;DHT22;53622;0.000;0.000;2023-03-01T00:51:29;18.80;42.20
66708;DHT22;53622;0.000;0.000;2023-03-01T00:54:00;18.80;42.20
66708;DHT22;53622;0.000;0.000;2023-03-01T00:56:30;18.80;42.20
66708;DHT22;53622;0.000;0.000;2023-03-01T00:59:02;18.80;42.10
66708;DHT22;53622;0.000;0.000;2023-03-01T01:01:31;18.80;42.20
66708;DHT22;53622;0.000;0.000;2023-03-01T01:04:03;18.70;42.10
66708;DHT22;53622;0.000;0.000;2023-03-01T01:06:34;18.70;42.20
66708;DHT22;53622;0.000;0.000;2023-03-01T01:09:05;18.70;42.10
66708;DHT22;53622;0.000;0.000;2023-03-01T01:11:35;18.70;42.10
66708;DHT22;53622;0.000;0.000;2023-03-01T01:14:06;18.70;42.10
66708;DHT22;53622;0.000;0.000;2023-03-01T01:16:36;18.70;42.10
66708;DHT22;53622;0.000;0.000;2023-03-01T01:19:05;18.70;42.10
66708;DHT22;53622;0.000;0.000;2023-03-01T01:21:35;18.60;42.10
66708;DHT22;53622;0.000;0.000;2023-03-01T01:24:05;18.70;42.10
66708;DHT22;53622;0.000;0.000;2023-03-01T01:26:34;18.70;42.10
66708;DHT22;53622;0.000;0.000;2023-03-01T01:29:07;18.60;42.10
66708;DHT22;53622;0.000;0.000;2023-03-01T01:31:38;18.60;42.00
66708;DHT22;53622;0.000;0.000;2023-03-01T01:34:14;18.60;42.10
66708;DHT22;53622;0.000;0.000;2023-03-01T01:36:43;18.60;42.10
66708;DHT22;53622;0.000;0.000;2023-03-01T01:39:13;18.60;42.00
66708;DHT22;53622;0.000;0.000;2023-03-01T01:41:42;18.60;42.60
66708;DHT22;53622;0.000;0.000;2023-03-01T01:44:16;18.60;42.00
66708;DHT22;53622;0.000;0.000;2023-03-01T01:46:48;18.60;42.00
66708;DHT22;53622;0.000;0.000;2023-03-01T01:49:27;18.60;42.00
66708;DHT22;53622;0.000;0.000;2023-03-01T01:52:03;18.60;42.00
66708;DHT22;53622;0.000;0.000;2023-03-01T01:54:40;18.50;41.90
66708;DHT22;53622;0.000;0.000;2023-03-01T01:57:13;18.60;42.60
66708;DHT22;53622;0.000;0.000;2023-03-01T01:59:49;18.50;41.90
66708;DHT22;53622;0.000;0.000;2023-03-01T02:02:20;18.50;41.90
66708;DHT22;53622;0.000;0.000;2023-03-01T02:04:54;18.50;41.90
66708;DHT22;53622;0.000;0.000;2023-03-01T02:07:26;18.50;41.90
66708;DHT22;53622;0.000;0.000;2023-03-01T02:09:57;18.50;41.90
66708;DHT22;53622;0.000;0.000;2023-03-01T02:12:27;18.50;41.90
66708;DHT22;53622;0.000;0.000;2023-03-01T02:14:59;18.50;41.80
66708;DHT22;53622;0.000;0.000;2023-03-01T02:17:28;18.50;41.80
66708;DHT22;53622;0.000;0.000;2023-03-01T02:20:07;18.50;41.90
66708;DHT22;53622;0.000;0.000;2023-03-01T02:22:39;18.50;41.90
66708;DHT22;53622;0.000;0.000;2023-03-01T02:25:25;18.50;41.80
66708;DHT22;53622;0.000;0.000;2023-03-01T02:27:58;18.50;41.80
66708;DHT22;53622;0.000;0.000;2023-03-01T02:30:32;18.40;41.80
66708;DHT22;53622;0.000;0.000;2023-03-01T02:33:04;18.40;41.80
66708;DHT22;53622;0.000;0.000;2023-03-01T02:35:35;18.40;41.80
66708;DHT22;53622;0.000;0.000;2023-03-01T02:38:08;18.40;41.80
66708;DHT22;53622;0.000;0.000;2023-03-01T02:40:38;18.40;41.80
66708;DHT22;53622;0.000;0.000;2023-03-01T02:43:10;18.40;41.80
66708;DHT22;53622;0.000;0.000;2023-03-01T02:45:48;18.40;41.80
66708;DHT22;53622;0.000;0.000;2023-03-01T02:48:18;18.40;41.80
66708;DHT22;53622;0.000;0.000;2023-03-01T02:51:02;18.40;41.80
66708;DHT22;53622;0.000;0.000;2023-03-01T02:53:39;18.30;41.80
66708;DHT22;53622;0.000;0.000;2023-03-01T02:56:11;18.30;41.80
66708;DHT22;53622;0.000;0.000;2023-03-01T02:58:42;18.30;41.80
66708;DHT22;53622;0.000;0.000;2023-03-01T03:01:18;18.40;41.80
66708;DHT22;53622;0.000;0.000;2023-03-01T03:03:48;18.30;41.80
66708;DHT22;53622;0.000;0.000;2023-03-01T03:06:17;18.30;41.70
66708;DHT22;53622;0.000;0.000;2023-03-01T03:12:40;18.30;41.80
66708;DHT22;53622;0.000;0.000;2023-03-01T03:15:10;18.30;41.80
66708;DHT22;53622;0.000;0.000;2023-03-01T03:17:42;18.30;41.80
66708;DHT22;53622;0.000;0.000;2023-03-01T03:20:14;18.30;42.40
66708;DHT22;53622;0.000;0.000;2023-03-01T03:22:48;18.30;41.80
66708;DHT22;53622;0.000;0.000;2023-03-01T03:25:18;18.30;41.70
66708;DHT22;53622;0.000;0.000;2023-03-01T03:27:51;18.30;41.70
66708;DHT22;53622;0.000;0.000;2023-03-01T03:30:26;18.30;41.70
66708;DHT22;53622;0.000;0.000;2023-03-01T03:32:58;18.30;41.70
66708;DHT22;53622;0.000;0.000;2023-03-01T03:35:30;18.20;41.70
66708;DHT22;53622;0.000;0.000;2023-03-01T03:38:03;18.20;41.70
66708;DHT22;53622;0.000;0.000;2023-03-01T03:40:35;18.20;41.70
66708;DHT22;53622;0.000;0.000;2023-03-01T03:43:08;18.20;41.70
66708;DHT22;53622;0.000;0.000;2023-03-01T03:45:37;18.20;41.60
66708;DHT22;53622;0.000;0.000;2023-03-01T03:48:09;18.20;41.60
66708;DHT22;53622;0.000;0.000;2023-03-01T03:50:40;18.20;41.70
66708;DHT22;53622;0.000;0.000;2023-03-01T03:53:11;18.20;41.70
66708;DHT22;53622;0.000;0.000;2023-03-01T03:55:41;18.20;41.70
66708;DHT22;53622;0.000;0.000;2023-03-01T03:58:12;18.20;41.70
66708;DHT22;53622;0.000;0.000;2023-03-01T04:00:42;18.20;41.70
66708;DHT22;53622;0.000;0.000;2023-03-01T04:03:15;18.20;41.80
66708;DHT22;53622;0.000;0.000;2023-03-01T04:05:46;18.20;41.80
66708;DHT22;53622;0.000;0.000;2023-03-01T04:08:18;18.20;41.90
66708;DHT22;53622;0.000;0.000;2023-03-01T04:10:50;18.20;41.90
66708;DHT22;53622;0.000;0.000;2023-03-01T04:13:21;18.20;41.90
66708;DHT22;53622;0.000;0.000;2023-03-01T04:15:53;18.20;41.90
66708;DHT22;53622;0.000;0.000;2023-03-01T04:18:24;18.20;41.90
66708;DHT22;53622;0.000;0.000;2023-03-01T04:20:54;18.10;41.90
66708;DHT22;53622;0.000;0.000;2023-03-01T04:23:24;18.10;41.90
66708;DHT22;53622;0.000;0.000;2023-03-01T04:25:54;18.10;41.90
66708;DHT22;53622;0.000;0.000;2023-03-01T04:28:25;18.10;41.90
66708;DHT22;53622;0.000;0.000;2023-03-01T04:30:56;18.10;41.90
66708;DHT22;53622;0.000;0.000;2023-03-01T04:33:27;18.10;42.00
66708;DHT22;53622;0.000;0.000;2023-03-01T04:35:56;18.10;41.90
66708;DHT22;53622;0.000;0.000;2023-03-01T04:38:26;18.10;41.90
66708;DHT22;53622;0.000;0.000;2023-03-01T04:40:55;18.10;42.00
66708;DHT22;53622;0.000;0.000;2023-03-01T04:43:24;18.10;42.00
66708;DHT22;53622;0.000;0.000;2023-03-01T04:45:53;18.10;42.00
66708;DHT22;53622;0.000;0.000;2023-03-01T04:48:23;18.10;42.00
66708;DHT22;53622;0.000;0.000;2023-03-01T04:50:53;18.10;42.10
66708;DHT22;53622;0.000;0.000;2023-03-01T04:53:22;18.10;42.10
66708;DHT22;53622;0.000;0.000;2023-03-01T04:55:53;18.10;42.00
66708;DHT22;53622;0.000;0.000;2023-03-01T04:58:23;18.10;42.10
66708;DHT22;53622;0.000;0.000;2023-03-01T05:01:01;18.10;42.10
66708;DHT22;53622;0.000;0.000;2023-03-01T05:03:43;18.10;42.00
66708;DHT22;53622;0.000;0.000;2023-03-01T05:06:14;18.00;42.00
66708;DHT22;53622;0.000;0.000;2023-03-01T05:08:44;18.00;42.10
66708;DHT22;53622;0.000;0.000;2023-03-01T05:11:13;18.00;42.00
66708;DHT22;53622;0.000;0.000;2023-03-01T05:13:43;18.00;42.10
66708;DHT22;53622;0.000;0.000;2023-03-01T05:16:13;18.00;42.10
66708;DHT22;53622;0.000;0.000;2023-03-01T05:18:42;18.00;42.10
66708;DHT22;53622;0.000;0.000;2023-03-01T05:21:14;18.00;42.10
66708;DHT22;53622;0.000;0.000;2023-03-01T05:23:45;18.00;42.10
66708;DHT22;53622;0.000;0.000;2023-03-01T05:26:15;18.00;42.10
66708;DHT22;53622;0.000;0.000;2023-03-01T05:29:00;18.00;42.20
66708;DHT22;53622;0.000;0.000;2023-03-01T05:31:29;18.00;42.20
66708;DHT22;53622;0.000;0.000;2023-03-01T05:33:59;18.00;42.20
66708;DHT22;53622;0.000;0.000;2023-03-01T05:36:30;18.00;42.20
66708;DHT22;53622;0.000;0.000;2023-03-01T05:39:00;18.00;42.20
66708;DHT22;53622;0.000;0.000;2023-03-01T05:41:29;18.00;42.20
66708;DHT22;53622;0.000;0.000;2023-03-01T05:43:58;18.00;42.20
66708;DHT22;53622;0.000;0.000;2023-03-01T05:46:28;18.00;42.20
66708;DHT22;53622;0.000;0.000;2023-03-01T05:48:57;18.00;42.20
66708;DHT22;53622;0.000;0.000;2023-03-01T05:51:27;17.90;42.20
66708;DHT22;53622;0.000;0.000;2023-03-01T05:53:58;17.90;42.20
66708;DHT22;53622;0.000;0.000;2023-03-01T05:56:27;17.90;42.10
66708;DHT22;53622;0.000;0.000;2023-03-01T05:58:57;17.90;42.20
66708;DHT22;53622;0.000;0.000;2023-03-01T06:01:26;17.90;42.10
66708;DHT22;53622;0.000;0.000;2023-03-01T06:03:57;17.90;42.20
66708;DHT22;53622;0.000;0.000;2023-03-01T06:06:26;17.90;42.30
66708;DHT22;53622;0.000;0.000;2023-03-01T06:08:56;17.90;42.40
66708;DHT22;53622;0.000;0.000;2023-03-01T06:11:26;17.90;42.60
66708;DHT22;53622;0.000;0.000;2023-03-01T06:13:56;17.90;42.70
66708;DHT22;53622;0.000;0.000;2023-03-01T06:16:25;17.90;42.80
66708;DHT22;53622;0.000;0.000;2023-03-01T06:18:55;17.90;43.00
66708;DHT22;53622;0.000;0.000;2023-03-01T06:21:24;17.90;43.30
66708;DHT22;53622;0.000;0.000;2023-03-01T06:23:53;18.00;43.90
66708;DHT22;53622;0.000;0.000;2023-03-01T06:26:22;18.00;44.10
66708;DHT22;53622;0.000;0.000;2023-03-01T06:28:53;18.10;44.60
66708;DHT22;53622;0.000;0.000;2023-03-01T06:31:22;18.30;44.70
66708;DHT22;53622;0.000;0.000;2023-03-01T06:33:52;18.40;44.70
66708;DHT22;53622;0.000;0.000;2023-03-01T06:36:21;18.50;44.70
66708;DHT22;53622;0.000;0.000;2023-03-01T06:38:50;18.60;44.80
66708;DHT22;53622;0.000;0.000;2023-03-01T06:41:19;18.80;44.70
66708;DHT22;53622;0.000;0.000;2023-03-01T06:43:48;18.90;44.60
66708;DHT22;53622;0.000;0.000;2023-03-01T06:46:19;19.00;44.50
66708;DHT22;53622;0.000;0.000;2023-03-01T06:48:49;19.10;44.30
66708;DHT22;53622;0.000;0.000;2023-03-01T06:51:20;19.10;44.20
66708;DHT22;53622;0.000;0.000;2023-03-01T06:53:49;19.20;44.10
66708;DHT22;53622;0.000;0.000;2023-03-01T06:56:18;19.30;44.10
66708;DHT22;53622;0.000;0.000;2023-03-01T06:58:47;19.30;44.20
66708;DHT22;53622;0.000;0.000;2023-03-01T07:01:18;19.30;44.20
66708;DHT22;53622;0.000;0.000;2023-03-01T07:03:48;19.40;44.30
66708;DHT22;53622;0.000;0.000;2023-03-01T07:06:17;19.40;44.20
66708;DHT22;53622;0.000;0.000;2023-03-01T07:08:47;19.50;44.10
66708;DHT22;53622;0.000;0.000;2023-03-01T07:11:16;19.50;43.50
66708;DHT22;53622;0.000;0.000;2023-03-01T07:13:45;19.50;43.80
66708;DHT22;53622;0.000;0.000;2023-03-01T07:16:15;19.50;43.90
66708;DHT22;53622;0.000;0.000;2023-03-01T07:18:45;19.50;44.30
66708;DHT22;53622;0.000;0.000;2023-03-01T07:21:15;19.60;44.50
66708;DHT22;53622;0.000;0.000;2023-03-01T07:23:47;19.60;44.60
66708;DHT22;53622;0.000;0.000;2023-03-01T07:26:17;19.60;44.80
66708;DHT22;53622;0.000;0.000;2023-03-01T07:28:46;19.60;44.90
66708;DHT22;53622;0.000;0.000;2023-03-01T07:31:15;19.70;44.90
66708;DHT22;53622;0.000;0.000;2023-03-01T07:33:46;19.60;45.00
66708;DHT22;53622;0.000;0.000;2023-03-01T07:36:15;19.70;45.00
66708;DHT22;53622;0.000;0.000;2023-03-01T07:38:44;19.70;44.90
66708;DHT22;53622;0.000;0.000;2023-03-01T07:41:13;19.70;44.80
66708;DHT22;53622;0.000;0.000;2023-03-01T07:43:43;19.60;44.60
66708;DHT22;53622;0.000;0.000;2023-03-01T07:46:12;19.60;44.70
66708;DHT22;53622;0.000;0.000;2023-03-01T07:48:41;19.60;44.60
66708;DHT22;53622;0.000;0.000;2023-03-01T07:51:12;19.60;44.30
66708;DHT22;53622;0.000;0.000;2023-03-01T07:53:42;19.60;44.20
66708;DHT22;53622;0.000;0.000;2023-03-01T07:56:12;19.60;44.10
66708;DHT22;53622;0.000;0.000;2023-03-01T07:58:43;19.60;43.80
66708;DHT22;53622;0.000;0.000;2023-03-01T08:01:14;19.60;43.50
66708;DHT22;53622;0.000;0.000;2023-03-01T08:03:44;19.50;42.40
66708;DHT22;53622;0.000;0.000;2023-03-01T08:06:16;19.50;40.90
66708;DHT22;53622;0.000;0.000;2023-03-01T08:08:45;19.50;41.10
66708;DHT22;53622;0.000;0.000;2023-03-01T08:11:15;19.40;41.40
66708;DHT22;53622;0.000;0.000;2023-03-01T08:13:47;19.40;40.40
66708;DHT22;53622;0.000;0.000;2023-03-01T08:16:19;19.30;40.30
66708;DHT22;53622;0.000;0.000;2023-03-01T08:18:48;19.30;40.80
66708;DHT22;53622;0.000;0.000;2023-03-01T08:21:19;19.30;42.10
66708;DHT22;53622;0.000;0.000;2023-03-01T08:23:48;19.30;42.30
66708;DHT22;53622;0.000;0.000;2023-03-01T08:26:19;19.40;42.70
66708;DHT22;53622;0.000;0.000;2023-03-01T08:28:50;19.30;42.70
66708;DHT22;53622;0.000;0.000;2023-03-01T08:31:21;19.40;43.80
66708;DHT22;53622;0.000;0.000;2023-03-01T08:33:54;19.40;43.30
66708;DHT22;53622;0.000;0.000;2023-03-01T08:36:26;19.50;43.50
66708;DHT22;53622;0.000;0.000;2023-03-01T08:38:57;19.50;43.00
66708;DHT22;53622;0.000;0.000;2023-03-01T08:41:26;19.50;43.30
66708;DHT22;53622;0.000;0.000;2023-03-01T08:43:56;19.50;41.50
66708;DHT22;53622;0.000;0.000;2023-03-01T08:46:27;19.50;41.80
66708;DHT22;53622;0.000;0.000;2023-03-01T08:48:57;19.60;42.30
66708;DHT22;53622;0.000;0.000;2023-03-01T08:51:28;19.60;43.40
66708;DHT22;53622;0.000;0.000;2023-03-01T08:53:59;19.60;43.20
66708;DHT22;53622;0.000;0.000;2023-03-01T08:56:29;19.60;43.50
66708;DHT22;53622;0.000;0.000;2023-03-01T08:58:58;19.60;44.00
66708;DHT22;53622;0.000;0.000;2023-03-01T09:01:28;19.70;43.40
66708;DHT22;53622;0.000;0.000;2023-03-01T09:03:57;19.70;43.50
66708;DHT22;53622;0.000;0.000;2023-03-01T09:06:28;19.70;43.50
66708;DHT22;53622;0.000;0.000;2023-03-01T09:08:59;19.70;43.80
66708;DHT22;53622;0.000;0.000;2023-03-01T09:11:29;19.70;43.80
66708;DHT22;53622;0.000;0.000;2023-03-01T09:13:58;19.80;43.10
66708;DHT22;53622;0.000;0.000;2023-03-01T09:16:27;19.80;43.00
66708;DHT22;53622;0.000;0.000;2023-03-01T09:18:58;19.80;42.90
66708;DHT22;53622;0.000;0.000;2023-03-01T09:21:28;19.80;43.20
66708;DHT22;53622;0.000;0.000;2023-03-01T09:24:12;19.90;43.00
66708;DHT22;53622;0.000;0.000;2023-03-01T09:26:43;19.90;43.10
66708;DHT22;53622;0.000;0.000;2023-03-01T09:29:17;19.90;42.90
66708;DHT22;53622;0.000;0.000;2023-03-01T09:31:46;20.00;42.90
66708;DHT22;53622;0.000;0.000;2023-03-01T09:34:15;20.00;42.70
66708;DHT22;53622;0.000;0.000;2023-03-01T09:36:52;20.00;42.60
66708;DHT22;53622;0.000;0.000;2023-03-01T09:39:21;20.10;42.60
66708;DHT22;53622;0.000;0.000;2023-03-01T09:41:57;20.10;42.40
66708;DHT22;53622;0.000;0.000;2023-03-01T09:44:36;20.10;42.40
66708;DHT22;53622;0.000;0.000;2023-03-01T09:47:09;20.10;42.30
66708;DHT22;53622;0.000;0.000;2023-03-01T09:49:41;20.20;42.50
66708;DHT22;53622;0.000;0.000;2023-03-01T09:52:25;20.20;42.20
66708;DHT22;53622;0.000;0.000;2023-03-01T09:54:57;20.20;42.10
66708;DHT22;53622;0.000;0.000;2023-03-01T09:57:33;20.20;42.10
66708;DHT22;53622;0.000;0.000;2023-03-01T10:00:29;20.20;42.00
66708;DHT22;53622;0.000;0.000;2023-03-01T10:03:07;20.30;42.10
66708;DHT22;53622;0.000;0.000;2023-03-01T10:05:45;20.20;42.60
66708;DHT22;53622;0.000;0.000;2023-03-01T10:08:36;20.30;42.30
66708;DHT22;53622;0.000;0.000;2023-03-01T10:11:21;20.30;42.80
66708;DHT22;53622;0.000;0.000;2023-03-01T10:13:57;20.30;42.50
66708;DHT22;53622;0.000;0.000;2023-03-01T10:16:36;20.20;42.20
66708;DHT22;53622;0.000;0.000;2023-03-01T10:19:11;20.30;42.00
66708;DHT22;53622;0.000;0.000;2023-03-01T10:21:45;20.30;42.00
66708;DHT22;53622;0.000;0.000;2023-03-01T10:24:18;20.30;42.70
66708;DHT22;53622;0.000;0.000;2023-03-01T10:26:54;20.30;42.80
66708;DHT22;53622;0.000;0.000;2023-03-01T10:29:28;20.30;43.20
66708;DHT22;53622;0.000;0.000;2023-03-01T10:31:59;20.30;43.40
66708;DHT22;53622;0.000;0.000;2023-03-01T10:34:31;20.20;43.00
66708;DHT22;53622;0.000;0.000;2023-03-01T10:37:11;20.20;43.00
66708;DHT22;53622;0.000;0.000;2023-03-01T10:40:00;20.30;42.60
66708;DHT22;53622;0.000;0.000;2023-03-01T10:42:35;20.30;42.60
66708;DHT22;53622;0.000;0.000;2023-03-01T10:45:19;20.30;42.30
66708;DHT22;53622;0.000;0.000;2023-03-01T10:48:10;20.30;42.10
66708;DHT22;53622;0.000;0.000;2023-03-01T10:50:42;20.30;42.10
66708;DHT22;53622;0.000;0.000;2023-03-01T10:53:24;20.30;42.10
66708;DHT22;53622;0.000;0.000;2023-03-01T10:56:00;20.40;42.00
66708;DHT22;53622;0.000;0.000;2023-03-01T10:58:31;20.40;42.10
66708;DHT22;53622;0.000;0.000;2023-03-01T11:01:08;20.40;42.50
66708;DHT22;53622;0.000;0.000;2023-03-01T11:04:09;20.40;42.40
66708;DHT22;53622;0.000;0.000;2023-03-01T11:06:40;20.40;42.60
66708;DHT22;53622;0.000;0.000;2023-03-01T11:09:14;20.50;42.30
66708;DHT22;53622;0.000;0.000;2023-03-01T11:11:46;20.50;43.30
66708;DHT22;53622;0.000;0.000;2023-03-01T11:14:22;20.40;42.70
66708;DHT22;53622;0.000;0.000;2023-03-01T11:17:02;20.50;42.40
66708;DHT22;53622;0.000;0.000;2023-03-01T11:19:32;20.50;42.60
66708;DHT22;53622;0.000;0.000;2023-03-01T11:22:03;20.50;42.80
66708;DHT22;53622;0.000;0.000;2023-03-01T11:24:39;20.50;42.80
66708;DHT22;53622;0.000;0.000;2023-03-01T11:27:20;20.40;42.20
66708;DHT22;53622;0.000;0.000;2023-03-01T11:29:57;20.50;41.70
66708;DHT22;53622;0.000;0.000;2023-03-01T11:32:32;20.50;41.70
66708;DHT22;53622;0.000;0.000;2023-03-01T11:35:08;20.50;41.80
66708;DHT22;53622;0.000;0.000;2023-03-01T11:37:44;20.50;41.80
66708;DHT22;53622;0.000;0.000;2023-03-01T11:40:21;20.60;41.80
66708;DHT22;53622;0.000;0.000;2023-03-01T11:43:12;20.60;41.70
66708;DHT22;53622;0.000;0.000;2023-03-01T11:45:54;20.60;41.90
66708;DHT22;53622;0.000;0.000;2023-03-01T11:48:43;20.70;41.70
66708;DHT22;53622;0.000;0.000;2023-03-01T11:51:23;20.70;41.70
66708;DHT22;53622;0.000;0.000;2023-03-01T11:54:03;20.80;41.80
66708;DHT22;53622;0.000;0.000;2023-03-01T11:56:37;20.80;41.80
66708;DHT22;53622;0.000;0.000;2023-03-01T11:59:21;20.80;42.10
66708;DHT22;53622;0.000;0.000;2023-03-01T12:02:12;20.90;42.10
66708;DHT22;53622;0.000;0.000;2023-03-01T12:05:00;20.90;42.00
66708;DHT22;53622;0.000;0.000;2023-03-01T12:07:42;21.00;42.30
66708;DHT22;53622;0.000;0.000;2023-03-01T12:10:20;21.00;42.30
66708;DHT22;53622;0.000;0.000;2023-03-01T12:13:12;21.00;42.40
66708;DHT22;53622;0.000;0.000;2023-03-01T12:15:58;21.10;42.30
66708;DHT22;53622;0.000;0.000;2023-03-01T12:21:46;21.10;41.90
66708;DHT22;53622;0.000;0.000;2023-03-01T12:27:35;21.10;41.90
66708;DHT22;53622;0.000;0.000;2023-03-01T12:30:21;21.10;41.80
66708;DHT22;53622;0.000;0.000;2023-03-01T12:33:05;21.10;42.00
66708;DHT22;53622;0.000;0.000;2023-03-01T12:35:54;21.00;41.70
66708;DHT22;53622;0.000;0.000;2023-03-01T12:38:32;21.00;41.90
66708;DHT22;53622;0.000;0.000;2023-03-01T12:41:40;21.10;41.90
66708;DHT22;53622;0.000;0.000;2023-03-01T12:44:23;21.10;41.80
66708;DHT22;53622;0.000;0.000;2023-03-01T12:47:06;21.00;42.40
66708;DHT22;53622;0.000;0.000;2023-03-01T12:49:41;21.10;42.20
66708;DHT22;53622;0.000;0.000;2023-03-01T12:52:16;21.10;41.90
66708;DHT22;53622;0.000;0.000;2023-03-01T12:54:51;21.10;41.90
66708;DHT22;53622;0.000;0.000;2023-03-01T12:57:28;21.10;41.90
66708;DHT22;53622;0.000;0.000;2023-03-01T13:00:18;21.10;41.90
66708;DHT22;53622;0.000;0.000;2023-03-01T13:02:52;21.10;41.90
66708;DHT22;53622;0.000;0.000;2023-03-01T13:05:33;21.10;41.90
66708;DHT22;53622;0.000;0.000;2023-03-01T13:08:10;21.10;41.80
66708;DHT22;53622;0.000;0.000;2023-03-01T13:10:47;21.10;41.80
66708;DHT22;53622;0.000;0.000;2023-03-01T13:13:21;21.10;42.30
66708;DHT22;53622;0.000;0.000;2023-03-01T13:15:52;21.10;42.20
66708;DHT22;53622;0.000;0.000;2023-03-01T13:18:32;21.00;42.20
66708;DHT22;53622;0.000;0.000;2023-03-01T13:21:03;21.00;42.30
66708;DHT22;53622;0.000;0.000;2023-03-01T13:23:35;21.00;42.30
66708;DHT22;53622;0.000;0.000;2023-03-01T13:26:11;20.90;42.20
66708;DHT22;53622;0.000;0.000;2023-03-01T13:28:55;20.90;42.20
66708;DHT22;53622;0.000;0.000;2023-03-01T13:31:58;20.90;42.60
66708;DHT22;53622;0.000;0.000;2023-03-01T13:34:59;20.90;42.60
66708;DHT22;53622;0.000;0.000;2023-03-01T13:37:35;20.80;42.50
66708;DHT22;53622;0.000;0.000;2023-03-01T13:43:34;20.80;42.30
66708;DHT22;53622;0.000;0.000;2023-03-01T13:46:10;20.80;42.20
66708;DHT22;53622;0.000;0.000;2023-03-01T13:48:40;20.80;42.80
66708;DHT22;53622;0.000;0.000;2023-03-01T13:51:12;20.80;42.50
66708;DHT22;53622;0.000;0.000;2023-03-01T13:53:44;20.70;42.80
66708;DHT22;53622;0.000;0.000;2023-03-01T13:56:16;20.70;42.60
66708;DHT22;53622;0.000;0.000;2023-03-01T13:58:50;20.70;42.40
66708;DHT22;53622;0.000;0.000;2023-03-01T14:01:26;20.70;42.10
66708;DHT22;53622;0.000;0.000;2023-03-01T14:03:57;20.70;42.30
66708;DHT22;53622;0.000;0.000;2023-03-01T14:06:29;20.80;42.10
66708;DHT22;53622;0.000;0.000;2023-03-01T14:09:05;20.80;41.90
66708;DHT22;53622;0.000;0.000;2023-03-01T14:11:51;20.80;41.70
66708;DHT22;53622;0.000;0.000;2023-03-01T14:14:44;20.80;42.00
66708;DHT22;53622;0.000;0.000;2023-03-01T14:17:52;20.70;42.20
66708;DHT22;53622;0.000;0.000;2023-03-01T14:20:25;20.70;42.30
66708;DHT22;53622;0.000;0.000;2023-03-01T14:22:57;20.70;42.20
66708;DHT22;53622;0.000;0.000;2023-03-01T14:25:29;20.70;42.40
66708;DHT22;53622;0.000;0.000;2023-03-01T14:28:02;20.70;42.60
66708;DHT22;53622;0.000;0.000;2023-03-01T14:30:37;20.70;42.80
66708;DHT22;53622;0.000;0.000;2023-03-01T14:33:19;20.60;42.60
66708;DHT22;53622;0.000;0.000;2023-03-01T14:35:54;20.60;42.90
66708;DHT22;53622;0.000;0.000;2023-03-01T14:38:33;20.60;42.70
66708;DHT22;53622;0.000;0.000;2023-03-01T14:41:06;20.60;42.70
66708;DHT22;53622;0.000;0.000;2023-03-01T14:43:38;20.60;42.80
66708;DHT22;53622;0.000;0.000;2023-03-01T14:46:19;20.60;42.40
66708;DHT22;53622;0.000;0.000;2023-03-01T14:48:53;20.60;42.40
66708;DHT22;53622;0.000;0.000;2023-03-01T14:51:23;20.60;42.60
66708;DHT22;53622;0.000;0.000;2023-03-01T14:53:53;20.50;42.60
66708;DHT22;53622;0.000;0.000;2023-03-01T14:56:22;20.50;42.10
66708;DHT22;53622;0.000;0.000;2023-03-01T14:58:52;20.50;42.30
66708;DHT22;53622;0.000;0.000;2023-03-01T15:01:23;20.50;42.30
66708;DHT22;53622;0.000;0.000;2023-03-01T15:03:52;20.50;41.80
66708;DHT22;53622;0.000;0.000;2023-03-01T15:06:22;20.50;42.30
66708;DHT22;53622;0.000;0.000;2023-03-01T15:08:53;20.50;42.50
66708;DHT22;53622;0.000;0.000;2023-03-01T15:11:27;20.50;42.50
66708;DHT22;53622;0.000;0.000;2023-03-01T15:13:58;20.40;42.40
66708;DHT22;53622;0.000;0.000;2023-03-01T15:16:30;20.40;42.50
66708;DHT22;53622;0.000;0.000;2023-03-01T15:19:01;20.40;42.40
66708;DHT22;53622;0.000;0.000;2023-03-01T15:21:33;20.40;42.30
66708;DHT22;53622;0.000;0.000;2023-03-01T15:24:06;20.40;42.40
66708;DHT22;53622;0.000;0.000;2023-03-01T15:26:51;20.40;42.70
66708;DHT22;53622;0.000;0.000;2023-03-01T15:29:24;20.30;42.60
66708;DHT22;53622;0.000;0.000;2023-03-01T15:32:01;20.30;42.50
66708;DHT22;53622;0.000;0.000;2023-03-01T15:34:36;20.30;42.30
66708;DHT22;53622;0.000;0.000;2023-03-01T15:37:34;20.30;42.30
66708;DHT22;53622;0.000;0.000;2023-03-01T15:40:18;20.30;42.60
66708;DHT22;53622;0.000;0.000;2023-03-01T15:42:48;20.30;42.40
66708;DHT22;53622;0.000;0.000;2023-03-01T15:45:23;20.30;41.80
66708;DHT22;53622;0.000;0.000;2023-03-01T15:47:56;20.30;41.90
66708;DHT22;53622;0.000;0.000;2023-03-01T15:50:27;20.20;41.50
66708;DHT22;53622;0.000;0.000;2023-03-01T15:52:58;20.20;41.80
66708;DHT22;53622;0.000;0.000;2023-03-01T15:55:31;20.20;41.70
66708;DHT22;53622;0.000;0.000;2023-03-01T15:58:04;20.20;41.90
66708;DHT22;53622;0.000;0.000;2023-03-01T16:00:34;20.20;41.70
66708;DHT22;53622;0.000;0.000;2023-03-01T16:03:03;20.20;41.90
66708;DHT22;53622;0.000;0.000;2023-03-01T16:05:34;20.20;41.80
66708;DHT22;53622;0.000;0.000;2023-03-01T16:08:05;20.20;41.90
66708;DHT22;53622;0.000;0.000;2023-03-01T16:10:36;20.20;42.00
66708;DHT22;53622;0.000;0.000;2023-03-01T16:13:05;20.20;42.30
66708;DHT22;53622;0.000;0.000;2023-03-01T16:15:35;20.20;42.10
66708;DHT22;53622;0.000;0.000;2023-03-01T16:18:06;20.20;42.50
66708;DHT22;53622;0.000;0.000;2023-03-01T16:20:38;20.20;42.50
66708;DHT22;53622;0.000;0.000;2023-03-01T16:23:10;20.20;42.60
66708;DHT22;53622;0.000;0.000;2023-03-01T16:25:41;20.20;42.50
66708;DHT22;53622;0.000;0.000;2023-03-01T16:28:10;20.20;42.50
66708;DHT22;53622;0.000;0.000;2023-03-01T16:30:40;20.20;42.50
66708;DHT22;53622;0.000;0.000;2023-03-01T16:33:09;20.20;41.90
66708;DHT22;53622;0.000;0.000;2023-03-01T16:35:58;20.20;41.50
66708;DHT22;53622;0.000;0.000;2023-03-01T16:38:31;20.20;43.10
66708;DHT22;53622;0.000;0.000;2023-03-01T16:41:03;20.30;42.10